createdAt,value
2023-03-23T16:00:44.973Z,41.28
2023-03-23T16:05:50.107Z,41.71
2023-03-23T16:10:53.773Z,41.78
2023-03-23T16:15:57.261Z,41.78
2023-03-23T16:21:03.929Z,41.69
2023-03-23T16:26:07.862Z,41.90
2023-03-23T16:31:11.818Z,41.98
2023-03-23T16:36:16.725Z,42.46
2023-03-23T16:41:20.213Z,42.45
2023-03-23T16:46:23.833Z,42.71
2023-03-23T16:51:28.809Z,43.31
2023-03-23T16:56:32.507Z,43.14
2023-03-23T17:01:36.259Z,43.52
2023-03-23T17:06:43.257Z,44.01
2023-03-23T17:11:49.403Z,44.27
2023-03-23T17:16:52.775Z,44.08
2023-03-23T17:21:57.668Z,43.89
2023-03-23T17:27:00.876Z,43.08
2023-03-23T17:32:04.492Z,44.43
2023-03-23T17:37:12.101Z,44.45
2023-03-23T17:42:15.682Z,44.46
2023-03-23T17:47:19.027Z,44.75
2023-03-23T17:52:24.406Z,44.49
2023-03-23T17:57:28.045Z,44.96
2023-03-23T18:02:31.470Z,44.76
2023-03-23T18:07:36.832Z,44.75
2023-03-23T18:12:40.652Z,44.95
2023-03-23T18:17:48.309Z,45.03
2023-03-23T18:22:53.331Z,45.11
2023-03-23T18:27:56.460Z,45.25
2023-03-23T18:33:08.272Z,45.79
2023-03-23T18:38:14.944Z,45.58
2023-03-23T18:43:18.883Z,45.77
2023-03-23T18:48:23.144Z,45.91
2023-03-23T18:53:28.753Z,45.42
2023-03-23T18:58:32.176Z,46.22
2023-03-23T19:03:35.849Z,46.11
2023-03-23T19:08:41.059Z,46.30
2023-03-23T19:14:00.355Z,46.25
2023-03-23T19:19:06.865Z,47.15
2023-03-23T19:24:12.164Z,46.97
2023-03-23T19:34:25.414Z,46.97
2023-03-23T19:39:30.339Z,47.14
2023-03-23T19:44:33.687Z,48.16
2023-03-23T19:49:38.948Z,47.58
2023-03-23T19:54:43.738Z,47.49
2023-03-23T19:59:46.999Z,48.21
2023-03-23T20:04:50.568Z,47.62
2023-03-23T20:09:55.463Z,47.96
2023-03-23T20:14:59.121Z,48.79
2023-03-23T20:20:02.711Z,48.36
2023-03-23T20:25:09.130Z,48.32
2023-03-23T20:30:12.900Z,48.27
2023-03-23T20:35:16.554Z,48.55
2023-03-23T20:40:22.119Z,49.89
2023-03-23T20:45:25.675Z,48.96
2023-03-23T20:50:29.713Z,50.16
2023-03-23T20:55:34.852Z,50.78
2023-03-23T21:00:40.579Z,50.58
2023-03-23T21:05:45.470Z,50.75
2023-03-23T21:10:51.060Z,51.34
2023-03-23T21:15:55.487Z,51.28
2023-03-23T21:21:00.568Z,50.56
2023-03-23T21:26:06.117Z,51.50
2023-03-23T21:31:09.249Z,52.20
2023-03-23T21:36:12.797Z,50.93
2023-03-23T21:41:17.705Z,51.32
2023-03-23T21:46:21.188Z,53.33
2023-03-23T21:51:26.302Z,51.51
2023-03-23T21:56:31.578Z,51.79
2023-03-23T22:01:37.343Z,52.21
2023-03-23T22:06:42.542Z,51.97
2023-03-23T22:11:47.487Z,51.75
2023-03-23T22:16:50.720Z,51.04
2023-03-23T22:21:54.275Z,51.94
2023-03-23T22:26:59.717Z,51.96
2023-03-23T22:32:03.355Z,52.34
2023-03-23T22:37:08.681Z,53.59
2023-03-23T22:42:14.967Z,53.20
2023-03-23T22:47:18.466Z,52.33
2023-03-23T22:52:22.021Z,52.68
2023-03-23T22:57:26.890Z,53.18
2023-03-23T23:02:30.110Z,53.72
2023-03-23T23:07:33.548Z,52.96
2023-03-23T23:12:38.457Z,53.24
2023-03-23T23:17:42.314Z,53.92
2023-03-23T23:22:46.234Z,53.36
2023-03-23T23:27:51.349Z,53.83
2023-03-23T23:32:56.028Z,53.45
2023-03-23T23:37:59.686Z,53.07
2023-03-23T23:43:05.297Z,54.03
2023-03-23T23:48:08.956Z,54.31
2023-03-23T23:53:13.067Z,54.51
2023-03-23T23:58:18.042Z,54.76
